sensor_id;sensor_type;location;lat;lon;timestamp;P1;durP1;ratioP1;P2;durP2;ratioP2
2406;SDS011;37709;53.480;9.688;2022-07-04T00:00:18;11.77;;;7.70;;
2406;SDS011;37709;53.480;9.688;2022-07-04T00:02:46;13.20;;;8.30;;
2406;SDS011;37709;53.480;9.688;2022-07-04T00:05:14;11.63;;;8.70;;
2406;SDS011;37709;53.480;9.688;2022-07-04T00:07:44;9.57;;;7.90;;
2406;SDS011;37709;53.480;9.688;2022-07-04T00:10:18;15.27;;;9.37;;
2406;SDS011;37709;53.480;9.688;2022-07-04T00:12:47;10.90;;;9.07;;
2406;SDS011;37709;53.480;9.688;2022-07-04T00:15:14;10.63;;;8.70;;
2406;SDS011;37709;53.480;9.688;2022-07-04T00:17:42;13.07;;;10.10;;
2406;SDS011;37709;53.480;9.688;2022-07-04T00:20:10;16.80;;;10.30;;
2406;SDS011;37709;53.480;9.688;2022-07-04T00:22:38;17.30;;;9.87;;
2406;SDS011;37709;53.480;9.688;2022-07-04T00:25:06;12.20;;;9.37;;
2406;SDS011;37709;53.480;9.688;2022-07-04T00:27:34;13.10;;;9.50;;
2406;SDS011;37709;53.480;9.688;2022-07-04T00:30:02;13.50;;;9.50;;
2406;SDS011;37709;53.480;9.688;2022-07-04T00:32:31;16.43;;;10.90;;
2406;SDS011;37709;53.480;9.688;2022-07-04T00:34:58;27.17;;;12.20;;
2406;SDS011;37709;53.480;9.688;2022-07-04T00:37:25;18.23;;;10.30;;
2406;SDS011;37709;53.480;9.688;2022-07-04T00:39:53;17.13;;;9.50;;
2406;SDS011;37709;53.480;9.688;2022-07-04T00:42:22;14.27;;;10.10;;
2406;SDS011;37709;53.480;9.688;2022-07-04T00:44:49;15.67;;;10.47;;
2406;SDS011;37709;53.480;9.688;2022-07-04T00:47:16;15.27;;;9.90;;
2406;SDS011;37709;53.480;9.688;2022-07-04T00:49:45;17.73;;;10.67;;
2406;SDS011;37709;53.480;9.688;2022-07-04T00:52:13;17.87;;;10.57;;
2406;SDS011;37709;53.480;9.688;2022-07-04T00:54:41;14.10;;;10.60;;
2406;SDS011;37709;53.480;9.688;2022-07-04T00:57:09;16.97;;;11.17;;
2406;SDS011;37709;53.480;9.688;2022-07-04T00:59:38;19.30;;;11.50;;
2406;SDS011;37709;53.480;9.688;2022-07-04T01:02:05;20.10;;;12.70;;
2406;SDS011;37709;53.480;9.688;2022-07-04T01:04:35;14.00;;;11.60;;
2406;SDS011;37709;53.480;9.688;2022-07-04T01:07:04;22.90;;;13.00;;
2406;SDS011;37709;53.480;9.688;2022-07-04T01:09:32;19.87;;;11.97;;
2406;SDS011;37709;53.480;9.688;2022-07-04T01:12:00;15.77;;;12.40;;
2406;SDS011;37709;53.480;9.688;2022-07-04T01:14:27;21.17;;;13.17;;
2406;SDS011;37709;53.480;9.688;2022-07-04T01:16:54;27.80;;;13.83;;
2406;SDS011;37709;53.480;9.688;2022-07-04T01:19:22;21.10;;;14.53;;
2406;SDS011;37709;53.480;9.688;2022-07-04T01:21:50;27.57;;;14.33;;
2406;SDS011;37709;53.480;9.688;2022-07-04T01:24:17;23.50;;;15.27;;
2406;SDS011;37709;53.480;9.688;2022-07-04T01:29:37;16.20;;;13.60;;
2406;SDS011;37709;53.480;9.688;2022-07-04T01:32:06;23.10;;;14.90;;
2406;SDS011;37709;53.480;9.688;2022-07-04T01:34:35;17.70;;;14.30;;
2406;SDS011;37709;53.480;9.688;2022-07-04T01:37:09;25.00;;;15.33;;
2406;SDS011;37709;53.480;9.688;2022-07-04T01:39:37;22.90;;;16.13;;
2406;SDS011;37709;53.480;9.688;2022-07-04T01:42:05;27.80;;;18.13;;
2406;SDS011;37709;53.480;9.688;2022-07-04T01:44:34;27.10;;;17.47;;
2406;SDS011;37709;53.480;9.688;2022-07-04T01:47:02;34.87;;;18.10;;
2406;SDS011;37709;53.480;9.688;2022-07-04T01:49:30;28.17;;;17.17;;
2406;SDS011;37709;53.480;9.688;2022-07-04T01:51:57;27.07;;;18.33;;
2406;SDS011;37709;53.480;9.688;2022-07-04T01:54:25;39.40;;;20.30;;
2406;SDS011;37709;53.480;9.688;2022-07-04T01:56:53;46.87;;;22.20;;
2406;SDS011;37709;53.480;9.688;2022-07-04T01:59:21;44.83;;;22.77;;
2406;SDS011;37709;53.480;9.688;2022-07-04T02:02:09;45.07;;;24.10;;
2406;SDS011;37709;53.480;9.688;2022-07-04T02:04:37;39.30;;;22.20;;
2406;SDS011;37709;53.480;9.688;2022-07-04T02:07:05;46.37;;;23.80;;
2406;SDS011;37709;53.480;9.688;2022-07-04T02:09:33;50.73;;;23.63;;
2406;SDS011;37709;53.480;9.688;2022-07-04T02:12:02;56.13;;;25.57;;
2406;SDS011;37709;53.480;9.688;2022-07-04T02:14:49;55.87;;;24.80;;
2406;SDS011;37709;53.480;9.688;2022-07-04T02:17:16;57.73;;;26.87;;
2406;SDS011;37709;53.480;9.688;2022-07-04T02:19:44;44.50;;;24.33;;
2406;SDS011;37709;53.480;9.688;2022-07-04T02:22:11;51.13;;;25.50;;
2406;SDS011;37709;53.480;9.688;2022-07-04T02:24:39;52.30;;;27.57;;
2406;SDS011;37709;53.480;9.688;2022-07-04T02:27:07;56.20;;;26.17;;
2406;SDS011;37709;53.480;9.688;2022-07-04T02:29:35;66.87;;;26.40;;
2406;SDS011;37709;53.480;9.688;2022-07-04T02:32:04;64.53;;;28.90;;
2406;SDS011;37709;53.480;9.688;2022-07-04T02:34:35;58.77;;;26.70;;
2406;SDS011;37709;53.480;9.688;2022-07-04T02:37:03;56.70;;;27.77;;
2406;SDS011;37709;53.480;9.688;2022-07-04T02:39:32;61.23;;;28.30;;
2406;SDS011;37709;53.480;9.688;2022-07-04T02:42:00;65.77;;;29.77;;
2406;SDS011;37709;53.480;9.688;2022-07-04T02:44:27;97.00;;;31.47;;
2406;SDS011;37709;53.480;9.688;2022-07-04T02:46:55;52.90;;;26.53;;
2406;SDS011;37709;53.480;9.688;2022-07-04T02:49:23;55.37;;;24.73;;
2406;SDS011;37709;53.480;9.688;2022-07-04T02:51:51;45.33;;;26.50;;
2406;SDS011;37709;53.480;9.688;2022-07-04T02:54:20;62.40;;;28.00;;
2406;SDS011;37709;53.480;9.688;2022-07-04T02:56:48;42.43;;;22.43;;
2406;SDS011;37709;53.480;9.688;2022-07-04T02:59:16;44.83;;;23.40;;
2406;SDS011;37709;53.480;9.688;2022-07-04T03:01:43;44.53;;;22.70;;
2406;SDS011;37709;53.480;9.688;2022-07-04T03:04:11;45.70;;;25.07;;
2406;SDS011;37709;53.480;9.688;2022-07-04T03:06:39;45.60;;;23.80;;
2406;SDS011;37709;53.480;9.688;2022-07-04T03:09:07;43.90;;;22.73;;
2406;SDS011;37709;53.480;9.688;2022-07-04T03:11:34;61.53;;;26.33;;
2406;SDS011;37709;53.480;9.688;2022-07-04T03:14:02;37.83;;;22.90;;
2406;SDS011;37709;53.480;9.688;2022-07-04T03:16:30;56.53;;;25.07;;
2406;SDS011;37709;53.480;9.688;2022-07-04T03:18:58;44.60;;;22.10;;
2406;SDS011;37709;53.480;9.688;2022-07-04T03:21:25;58.63;;;22.53;;
2406;SDS011;37709;53.480;9.688;2022-07-04T03:23:53;36.50;;;21.47;;
2406;SDS011;37709;53.480;9.688;2022-07-04T03:26:29;35.50;;;21.87;;
2406;SDS011;37709;53.480;9.688;2022-07-04T03:28:59;39.20;;;21.57;;
2406;SDS011;37709;53.480;9.688;2022-07-04T03:31:27;35.50;;;19.80;;
2406;SDS011;37709;53.480;9.688;2022-07-04T03:33:56;39.93;;;20.00;;
2406;SDS011;37709;53.480;9.688;2022-07-04T03:36:24;31.70;;;17.93;;
2406;SDS011;37709;53.480;9.688;2022-07-04T03:38:51;27.53;;;18.20;;
2406;SDS011;37709;53.480;9.688;2022-07-04T03:41:18;27.53;;;18.50;;
2406;SDS011;37709;53.480;9.688;2022-07-04T03:43:46;29.27;;;17.07;;
2406;SDS011;37709;53.480;9.688;2022-07-04T03:46:17;22.83;;;15.83;;
2406;SDS011;37709;53.480;9.688;2022-07-04T03:48:45;21.20;;;15.90;;
2406;SDS011;37709;53.480;9.688;2022-07-04T03:51:12;19.83;;;15.43;;
2406;SDS011;37709;53.480;9.688;2022-07-04T03:53:40;22.50;;;14.30;;
2406;SDS011;37709;53.480;9.688;2022-07-04T03:56:08;20.00;;;14.87;;
2406;SDS011;37709;53.480;9.688;2022-07-04T03:58:36;15.70;;;12.37;;
2406;SDS011;37709;53.480;9.688;2022-07-04T04:01:03;20.40;;;14.07;;
2406;SDS011;37709;53.480;9.688;2022-07-04T04:03:31;17.03;;;13.07;;
2406;SDS011;37709;53.480;9.688;2022-07-04T04:06:17;16.37;;;13.30;;
2406;SDS011;37709;53.480;9.688;2022-07-04T04:08:45;18.60;;;13.17;;
2406;SDS011;37709;53.480;9.688;2022-07-04T04:11:12;15.20;;;11.70;;
2406;SDS011;37709;53.480;9.688;2022-07-04T04:13:40;13.60;;;11.70;;
2406;SDS011;37709;53.480;9.688;2022-07-04T04:16:08;14.90;;;11.70;;
2406;SDS011;37709;53.480;9.688;2022-07-04T04:18:35;14.87;;;11.30;;
2406;SDS011;37709;53.480;9.688;2022-07-04T04:21:04;14.10;;;11.67;;
2406;SDS011;37709;53.480;9.688;2022-07-04T04:23:31;19.83;;;11.57;;
2406;SDS011;37709;53.480;9.688;2022-07-04T04:25:59;13.53;;;9.83;;
2406;SDS011;37709;53.480;9.688;2022-07-04T04:28:27;11.63;;;9.87;;
2406;SDS011;37709;53.480;9.688;2022-07-04T04:30:54;11.07;;;9.97;;
2406;SDS011;37709;53.480;9.688;2022-07-04T04:33:21;9.73;;;8.73;;
2406;SDS011;37709;53.480;9.688;2022-07-04T04:35:49;10.70;;;8.27;;
2406;SDS011;37709;53.480;9.688;2022-07-04T04:38:16;10.43;;;7.80;;
2406;SDS011;37709;53.480;9.688;2022-07-04T04:40:44;10.83;;;8.00;;
2406;SDS011;37709;53.480;9.688;2022-07-04T04:43:11;9.50;;;8.37;;
2406;SDS011;37709;53.480;9.688;2022-07-04T04:45:39;7.60;;;6.73;;
2406;SDS011;37709;53.480;9.688;2022-07-04T04:48:07;7.53;;;6.60;;
2406;SDS011;37709;53.480;9.688;2022-07-04T04:50:35;8.07;;;5.97;;
2406;SDS011;37709;53.480;9.688;2022-07-04T04:53:03;8.50;;;5.83;;
2406;SDS011;37709;53.480;9.688;2022-07-04T04:55:31;6.30;;;5.60;;
2406;SDS011;37709;53.480;9.688;2022-07-04T04:57:58;6.90;;;6.20;;
2406;SDS011;37709;53.480;9.688;2022-07-04T05:00:26;6.87;;;5.50;;
2406;SDS011;37709;53.480;9.688;2022-07-04T05:05:47;12.97;;;5.70;;
2406;SDS011;37709;53.480;9.688;2022-07-04T05:08:17;5.77;;;4.77;;
2406;SDS011;37709;53.480;9.688;2022-07-04T05:10:44;5.27;;;4.67;;
2406;SDS011;37709;53.480;9.688;2022-07-04T05:13:12;5.47;;;4.97;;
2406;SDS011;37709;53.480;9.688;2022-07-04T05:15:39;5.13;;;4.63;;
2406;SDS011;37709;53.480;9.688;2022-07-04T05:18:06;6.20;;;4.10;;
2406;SDS011;37709;53.480;9.688;2022-07-04T05:20:34;4.57;;;4.13;;
2406;SDS011;37709;53.480;9.688;2022-07-04T05:23:02;4.80;;;4.30;;
2406;SDS011;37709;53.480;9.688;2022-07-04T05:25:30;6.10;;;4.50;;
2406;SDS011;37709;53.480;9.688;2022-07-04T05:27:57;7.43;;;4.10;;
2406;SDS011;37709;53.480;9.688;2022-07-04T05:30:25;7.47;;;4.13;;
2406;SDS011;37709;53.480;9.688;2022-07-04T05:32:53;6.03;;;4.07;;
2406;SDS011;37709;53.480;9.688;2022-07-04T05:35:20;3.40;;;3.10;;
2406;SDS011;37709;53.480;9.688;2022-07-04T05:37:48;5.10;;;3.20;;
2406;SDS011;37709;53.480;9.688;2022-07-04T05:40:16;7.57;;;3.87;;
2406;SDS011;37709;53.480;9.688;2022-07-04T05:42:43;3.77;;;3.00;;
2406;SDS011;37709;53.480;9.688;2022-07-04T05:45:11;3.97;;;3.50;;
2406;SDS011;37709;53.480;9.688;2022-07-04T05:47:38;3.00;;;2.50;;
2406;SDS011;37709;53.480;9.688;2022-07-04T05:50:06;4.93;;;3.63;;
2406;SDS011;37709;53.480;9.688;2022-07-04T05:52:33;4.33;;;3.53;;
2406;SDS011;37709;53.480;9.688;2022-07-04T05:55:01;5.13;;;3.00;;
2406;SDS011;37709;53.480;9.688;2022-07-04T05:57:29;3.93;;;3.00;;
2406;SDS011;37709;53.480;9.688;2022-07-04T05:59:57;4.67;;;3.13;;
2406;SDS011;37709;53.480;9.688;2022-07-04T06:02:25;3.30;;;3.00;;
2406;SDS011;37709;53.480;9.688;2022-07-04T06:04:53;5.97;;;3.13;;
2406;SDS011;37709;53.480;9.688;2022-07-04T06:07:21;6.10;;;3.00;;
2406;SDS011;37709;53.480;9.688;2022-07-04T06:09:49;6.27;;;3.07;;
2406;SDS011;37709;53.480;9.688;2022-07-04T06:12:19;4.90;;;3.67;;
2406;SDS011;37709;53.480;9.688;2022-07-04T06:14:47;4.10;;;3.40;;
2406;SDS011;37709;53.480;9.688;2022-07-04T06:17:14;4.53;;;3.13;;
2406;SDS011;37709;53.480;9.688;2022-07-04T06:19:42;5.10;;;3.27;;
2406;SDS011;37709;53.480;9.688;2022-07-04T06:22:09;3.57;;;2.80;;
2406;SDS011;37709;53.480;9.688;2022-07-04T06:24:36;3.20;;;2.67;;
2406;SDS011;37709;53.480;9.688;2022-07-04T06:27:06;4.17;;;2.63;;
2406;SDS011;37709;53.480;9.688;2022-07-04T06:29:33;11.40;;;3.30;;
2406;SDS011;37709;53.480;9.688;2022-07-04T06:32:01;2.60;;;2.40;;
2406;SDS011;37709;53.480;9.688;2022-07-04T06:34:28;4.07;;;2.90;;
2406;SDS011;37709;53.480;9.688;2022-07-04T06:37:15;4.87;;;2.30;;
2406;SDS011;37709;53.480;9.688;2022-07-04T06:39:42;3.30;;;1.93;;
2406;SDS011;37709;53.480;9.688;2022-07-04T06:42:10;4.43;;;2.87;;
2406;SDS011;37709;53.480;9.688;2022-07-04T06:44:38;3.83;;;1.97;;
2406;SDS011;37709;53.480;9.688;2022-07-04T06:47:05;3.63;;;2.00;;
2406;SDS011;37709;53.480;9.688;2022-07-04T06:49:33;3.27;;;2.00;;
2406;SDS011;37709;53.480;9.688;2022-07-04T06:52:01;3.23;;;2.30;;
2406;SDS011;37709;53.480;9.688;2022-07-04T06:54:28;3.10;;;1.97;;
2406;SDS011;37709;53.480;9.688;2022-07-04T06:56:55;4.10;;;1.90;;
2406;SDS011;37709;53.480;9.688;2022-07-04T06:59:43;4.47;;;1.87;;
2406;SDS011;37709;53.480;9.688;2022-07-04T07:02:11;2.80;;;1.97;;
2406;SDS011;37709;53.480;9.688;2022-07-04T07:04:38;2.90;;;2.00;;
2406;SDS011;37709;53.480;9.688;2022-07-04T07:07:08;3.30;;;2.00;;
2406;SDS011;37709;53.480;9.688;2022-07-04T07:09:36;1.87;;;1.53;;
2406;SDS011;37709;53.480;9.688;2022-07-04T07:12:03;2.43;;;1.50;;
2406;SDS011;37709;53.480;9.688;2022-07-04T07:14:31;2.37;;;1.70;;
2406;SDS011;37709;53.480;9.688;2022-07-04T07:16:59;2.70;;;1.30;;
2406;SDS011;37709;53.480;9.688;2022-07-04T07:19:26;5.57;;;1.40;;
2406;SDS011;37709;53.480;9.688;2022-07-04T07:21:54;1.70;;;1.53;;
2406;SDS011;37709;53.480;9.688;2022-07-04T07:24:21;2.50;;;1.13;;
2406;SDS011;37709;53.480;9.688;2022-07-04T07:26:50;3.20;;;1.20;;
2406;SDS011;37709;53.480;9.688;2022-07-04T07:29:19;2.60;;;1.43;;
2406;SDS011;37709;53.480;9.688;2022-07-04T07:31:47;2.80;;;1.60;;
2406;SDS011;37709;53.480;9.688;2022-07-04T07:34:14;4.50;;;1.40;;
2406;SDS011;37709;53.480;9.688;2022-07-04T07:36:42;3.47;;;1.43;;
2406;SDS011;37709;53.480;9.688;2022-07-04T07:39:09;1.70;;;0.90;;
2406;SDS011;37709;53.480;9.688;2022-07-04T07:41:37;5.17;;;1.20;;
2406;SDS011;37709;53.480;9.688;2022-07-04T07:44:07;2.10;;;0.93;;
2406;SDS011;37709;53.480;9.688;2022-07-04T07:46:35;3.83;;;1.20;;
2406;SDS011;37709;53.480;9.688;2022-07-04T07:49:02;4.43;;;1.10;;
2406;SDS011;37709;53.480;9.688;2022-07-04T07:51:30;3.10;;;1.00;;
2406;SDS011;37709;53.480;9.688;2022-07-04T07:53:57;2.30;;;0.90;;
2406;SDS011;37709;53.480;9.688;2022-07-04T07:56:43;2.80;;;0.97;;
2406;SDS011;37709;53.480;9.688;2022-07-04T07:59:11;3.63;;;1.10;;
2406;SDS011;37709;53.480;9.688;2022-07-04T08:01:38;2.60;;;1.17;;
2406;SDS011;37709;53.480;9.688;2022-07-04T08:04:06;2.83;;;0.97;;
2406;SDS011;37709;53.480;9.688;2022-07-04T08:06:52;2.03;;;0.83;;
2406;SDS011;37709;53.480;9.688;2022-07-04T08:09:39;1.67;;;0.83;;
2406;SDS011;37709;53.480;9.688;2022-07-04T08:12:07;2.07;;;1.00;;
2406;SDS011;37709;53.480;9.688;2022-07-04T08:14:35;1.30;;;1.00;;
2406;SDS011;37709;53.480;9.688;2022-07-04T08:17:03;1.83;;;0.70;;
2406;SDS011;37709;53.480;9.688;2022-07-04T08:19:33;2.53;;;0.90;;
2406;SDS011;37709;53.480;9.688;2022-07-04T08:22:01;1.27;;;0.60;;
2406;SDS011;37709;53.480;9.688;2022-07-04T08:24:44;2.10;;;0.90;;
2406;SDS011;37709;53.480;9.688;2022-07-04T08:27:12;1.37;;;0.90;;
2406;SDS011;37709;53.480;9.688;2022-07-04T08:29:40;1.90;;;0.97;;
2406;SDS011;37709;53.480;9.688;2022-07-04T08:32:08;1.10;;;0.70;;
2406;SDS011;37709;53.480;9.688;2022-07-04T08:34:36;1.23;;;0.83;;
2406;SDS011;37709;53.480;9.688;2022-07-04T08:37:03;1.70;;;0.90;;
2406;SDS011;37709;53.480;9.688;2022-07-04T08:39:31;1.57;;;0.80;;
2406;SDS011;37709;53.480;9.688;2022-07-04T08:42:01;2.20;;;1.03;;
2406;SDS011;37709;53.480;9.688;2022-07-04T08:44:38;5.33;;;0.97;;
2406;SDS011;37709;53.480;9.688;2022-07-04T08:47:09;1.50;;;0.87;;
2406;SDS011;37709;53.480;9.688;2022-07-04T08:49:44;1.43;;;1.07;;
2406;SDS011;37709;53.480;9.688;2022-07-04T08:52:21;2.00;;;0.63;;
2406;SDS011;37709;53.480;9.688;2022-07-04T08:55:08;1.83;;;0.70;;
2406;SDS011;37709;53.480;9.688;2022-07-04T08:57:59;2.30;;;0.87;;
2406;SDS011;37709;53.480;9.688;2022-07-04T09:00:47;2.40;;;1.17;;
2406;SDS011;37709;53.480;9.688;2022-07-04T09:03:15;1.30;;;0.70;;
2406;SDS011;37709;53.480;9.688;2022-07-04T09:05:45;2.30;;;0.97;;
2406;SDS011;37709;53.480;9.688;2022-07-04T09:08:14;1.40;;;0.80;;
2406;SDS011;37709;53.480;9.688;2022-07-04T09:10:42;1.40;;;0.70;;
2406;SDS011;37709;53.480;9.688;2022-07-04T09:13:10;1.10;;;0.70;;
2406;SDS011;37709;53.480;9.688;2022-07-04T09:15:41;1.30;;;0.70;;
2406;SDS011;37709;53.480;9.688;2022-07-04T09:21:11;1.67;;;0.80;;
2406;SDS011;37709;53.480;9.688;2022-07-04T09:23:41;1.47;;;0.83;;
2406;SDS011;37709;53.480;9.688;2022-07-04T09:26:11;1.67;;;0.90;;
2406;SDS011;37709;53.480;9.688;2022-07-04T09:28:42;1.83;;;0.70;;
2406;SDS011;37709;53.480;9.688;2022-07-04T09:31:27;1.30;;;1.00;;
2406;SDS011;37709;53.480;9.688;2022-07-04T09:34:00;3.00;;;0.90;;
2406;SDS011;37709;53.480;9.688;2022-07-04T09:36:40;1.00;;;0.60;;
2406;SDS011;37709;53.480;9.688;2022-07-04T09:39:14;3.07;;;0.80;;
2406;SDS011;37709;53.480;9.688;2022-07-04T09:41:55;1.97;;;0.83;;
2406;SDS011;37709;53.480;9.688;2022-07-04T09:44:26;1.20;;;0.60;;
2406;SDS011;37709;53.480;9.688;2022-07-04T09:46:55;1.87;;;0.90;;
2406;SDS011;37709;53.480;9.688;2022-07-04T09:49:24;1.20;;;0.80;;
2406;SDS011;37709;53.480;9.688;2022-07-04T09:51:52;1.93;;;0.50;;
2406;SDS011;37709;53.480;9.688;2022-07-04T09:54:24;0.90;;;0.53;;
2406;SDS011;37709;53.480;9.688;2022-07-04T09:56:58;2.27;;;0.70;;
2406;SDS011;37709;53.480;9.688;2022-07-04T09:59:27;2.13;;;0.60;;
2406;SDS011;37709;53.480;9.688;2022-07-04T10:02:06;1.50;;;0.60;;
2406;SDS011;37709;53.480;9.688;2022-07-04T10:04:41;1.63;;;0.73;;
2406;SDS011;37709;53.480;9.688;2022-07-04T10:10:26;1.30;;;0.50;;
2406;SDS011;37709;53.480;9.688;2022-07-04T10:13:02;1.30;;;0.70;;
2406;SDS011;37709;53.480;9.688;2022-07-04T10:15:35;1.00;;;0.63;;
2406;SDS011;37709;53.480;9.688;2022-07-04T10:18:05;1.67;;;0.70;;
2406;SDS011;37709;53.480;9.688;2022-07-04T10:20:34;1.00;;;0.60;;
2406;SDS011;37709;53.480;9.688;2022-07-04T10:23:02;1.00;;;0.60;;
2406;SDS011;37709;53.480;9.688;2022-07-04T10:25:30;0.93;;;0.50;;
2406;SDS011;37709;53.480;9.688;2022-07-04T10:27:58;1.50;;;0.63;;
2406;SDS011;37709;53.480;9.688;2022-07-04T10:30:29;3.70;;;0.50;;
2406;SDS011;37709;53.480;9.688;2022-07-04T10:33:06;0.87;;;0.60;;
2406;SDS011;37709;53.480;9.688;2022-07-04T10:38:16;0.80;;;0.47;;
2406;SDS011;37709;53.480;9.688;2022-07-04T10:48:49;1.80;;;0.63;;
2406;SDS011;37709;53.480;9.688;2022-07-04T10:54:01;1.23;;;0.70;;
2406;SDS011;37709;53.480;9.688;2022-07-04T10:59:21;1.17;;;0.63;;
2406;SDS011;37709;53.480;9.688;2022-07-04T11:01:54;1.50;;;0.80;;
2406;SDS011;37709;53.480;9.688;2022-07-04T11:18:12;1.67;;;0.77;;
2406;SDS011;37709;53.480;9.688;2022-07-04T11:20:44;1.80;;;0.80;;
2406;SDS011;37709;53.480;9.688;2022-07-04T11:23:15;1.00;;;0.70;;
2406;SDS011;37709;53.480;9.688;2022-07-04T11:25:46;0.90;;;0.60;;
2406;SDS011;37709;53.480;9.688;2022-07-04T11:28:27;2.03;;;0.90;;
2406;SDS011;37709;53.480;9.688;2022-07-04T11:31:13;1.67;;;0.80;;
2406;SDS011;37709;53.480;9.688;2022-07-04T11:33:43;1.10;;;0.87;;
2406;SDS011;37709;53.480;9.688;2022-07-04T11:36:14;1.50;;;0.80;;
2406;SDS011;37709;53.480;9.688;2022-07-04T11:41:41;0.80;;;0.60;;
2406;SDS011;37709;53.480;9.688;2022-07-04T11:44:29;1.37;;;0.60;;
2406;SDS011;37709;53.480;9.688;2022-07-04T11:47:22;1.20;;;0.77;;
2406;SDS011;37709;53.480;9.688;2022-07-04T11:49:54;2.07;;;1.00;;
2406;SDS011;37709;53.480;9.688;2022-07-04T11:52:56;6.73;;;0.90;;
2406;SDS011;37709;53.480;9.688;2022-07-04T11:55:51;1.33;;;0.90;;
2406;SDS011;37709;53.480;9.688;2022-07-04T11:58:19;1.43;;;0.90;;
2406;SDS011;37709;53.480;9.688;2022-07-04T12:00:48;3.40;;;1.00;;
2406;SDS011;37709;53.480;9.688;2022-07-04T12:03:16;1.50;;;0.70;;
2406;SDS011;37709;53.480;9.688;2022-07-04T12:05:43;3.27;;;0.90;;
2406;SDS011;37709;53.480;9.688;2022-07-04T12:08:13;1.87;;;1.07;;
2406;SDS011;37709;53.480;9.688;2022-07-04T12:10:55;1.57;;;0.80;;
2406;SDS011;37709;53.480;9.688;2022-07-04T12:13:26;1.40;;;0.70;;
2406;SDS011;37709;53.480;9.688;2022-07-04T12:15:54;1.43;;;0.77;;
2406;SDS011;37709;53.480;9.688;2022-07-04T12:18:25;3.20;;;0.90;;
2406;SDS011;37709;53.480;9.688;2022-07-04T12:21:12;1.83;;;0.77;;
2406;SDS011;37709;53.480;9.688;2022-07-04T12:23:52;3.43;;;1.00;;
2406;SDS011;37709;53.480;9.688;2022-07-04T12:26:46;1.40;;;1.10;;
2406;SDS011;37709;53.480;9.688;2022-07-04T12:29:20;2.03;;;0.90;;
2406;SDS011;37709;53.480;9.688;2022-07-04T12:31:57;3.70;;;1.40;;
2406;SDS011;37709;53.480;9.688;2022-07-04T12:34:26;1.60;;;0.80;;
2406;SDS011;37709;53.480;9.688;2022-07-04T12:36:54;2.43;;;1.10;;
2406;SDS011;37709;53.480;9.688;2022-07-04T12:39:30;1.10;;;0.83;;
2406;SDS011;37709;53.480;9.688;2022-07-04T12:44:32;2.00;;;0.93;;
2406;SDS011;37709;53.480;9.688;2022-07-04T12:47:00;4.30;;;1.00;;
2406;SDS011;37709;53.480;9.688;2022-07-04T12:49:45;2.37;;;1.13;;
2406;SDS011;37709;53.480;9.688;2022-07-04T12:52:15;1.80;;;0.90;;
2406;SDS011;37709;53.480;9.688;2022-07-04T12:54:44;0.80;;;0.80;;
2406;SDS011;37709;53.480;9.688;2022-07-04T12:57:28;4.80;;;0.93;;
2406;SDS011;37709;53.480;9.688;2022-07-04T12:59:55;4.07;;;0.80;;
2406;SDS011;37709;53.480;9.688;2022-07-04T13:02:43;4.40;;;1.00;;
2406;SDS011;37709;53.480;9.688;2022-07-04T13:05:11;1.80;;;0.90;;
2406;SDS011;37709;53.480;9.688;2022-07-04T13:07:38;1.60;;;1.07;;
2406;SDS011;37709;53.480;9.688;2022-07-04T13:10:06;2.23;;;0.90;;
2406;SDS011;37709;53.480;9.688;2022-07-04T13:12:34;2.30;;;0.80;;
2406;SDS011;37709;53.480;9.688;2022-07-04T13:15:02;1.60;;;0.90;;
2406;SDS011;37709;53.480;9.688;2022-07-04T13:17:31;1.40;;;0.70;;
2406;SDS011;37709;53.480;9.688;2022-07-04T13:19:58;1.47;;;0.77;;
2406;SDS011;37709;53.480;9.688;2022-07-04T13:22:26;1.10;;;0.80;;
2406;SDS011;37709;53.480;9.688;2022-07-04T13:24:54;1.40;;;0.90;;
2406;SDS011;37709;53.480;9.688;2022-07-04T13:27:22;2.20;;;1.30;;
2406;SDS011;37709;53.480;9.688;2022-07-04T13:29:50;1.97;;;0.83;;
2406;SDS011;37709;53.480;9.688;2022-07-04T13:32:17;5.27;;;0.83;;
2406;SDS011;37709;53.480;9.688;2022-07-04T13:34:45;2.40;;;0.83;;
2406;SDS011;37709;53.480;9.688;2022-07-04T13:37:13;0.83;;;0.60;;
2406;SDS011;37709;53.480;9.688;2022-07-04T13:39:42;2.37;;;1.10;;
2406;SDS011;37709;53.480;9.688;2022-07-04T13:45:26;1.53;;;0.80;;
2406;SDS011;37709;53.480;9.688;2022-07-04T13:47:54;1.33;;;0.67;;
2406;SDS011;37709;53.480;9.688;2022-07-04T13:50:27;1.43;;;0.90;;
2406;SDS011;37709;53.480;9.688;2022-07-04T13:52:54;3.97;;;1.30;;
2406;SDS011;37709;53.480;9.688;2022-07-04T13:55:24;1.43;;;0.80;;
2406;SDS011;37709;53.480;9.688;2022-07-04T13:57:51;2.00;;;1.03;;
2406;SDS011;37709;53.480;9.688;2022-07-04T14:00:23;3.33;;;1.27;;
2406;SDS011;37709;53.480;9.688;2022-07-04T14:02:51;2.43;;;1.20;;
2406;SDS011;37709;53.480;9.688;2022-07-04T14:05:20;2.47;;;1.07;;
2406;SDS011;37709;53.480;9.688;2022-07-04T14:07:48;3.23;;;1.20;;
2406;SDS011;37709;53.480;9.688;2022-07-04T14:10:15;1.30;;;0.80;;
2406;SDS011;37709;53.480;9.688;2022-07-04T14:12:43;2.27;;;0.80;;
2406;SDS011;37709;53.480;9.688;2022-07-04T14:15:10;1.17;;;0.90;;
2406;SDS011;37709;53.480;9.688;2022-07-04T14:17:39;4.97;;;0.90;;
2406;SDS011;37709;53.480;9.688;2022-07-04T14:20:07;3.00;;;1.10;;
2406;SDS011;37709;53.480;9.688;2022-07-04T14:22:37;1.67;;;0.93;;
2406;SDS011;37709;53.480;9.688;2022-07-04T14:25:05;2.00;;;1.10;;
2406;SDS011;37709;53.480;9.688;2022-07-04T14:30:27;2.83;;;1.40;;
2406;SDS011;37709;53.480;9.688;2022-07-04T14:35:53;1.73;;;1.10;;
2406;SDS011;37709;53.480;9.688;2022-07-04T14:38:20;3.57;;;1.43;;
2406;SDS011;37709;53.480;9.688;2022-07-04T14:40:48;2.17;;;0.90;;
2406;SDS011;37709;53.480;9.688;2022-07-04T14:43:18;1.73;;;1.00;;
2406;SDS011;37709;53.480;9.688;2022-07-04T14:45:46;1.97;;;1.10;;
2406;SDS011;37709;53.480;9.688;2022-07-04T14:48:14;2.33;;;1.20;;
2406;SDS011;37709;53.480;9.688;2022-07-04T14:50:42;2.70;;;1.07;;
2406;SDS011;37709;53.480;9.688;2022-07-04T14:53:11;2.13;;;0.93;;
2406;SDS011;37709;53.480;9.688;2022-07-04T14:55:39;3.20;;;1.07;;
2406;SDS011;37709;53.480;9.688;2022-07-04T14:58:07;3.03;;;1.53;;
2406;SDS011;37709;53.480;9.688;2022-07-04T15:00:34;1.20;;;0.90;;
2406;SDS011;37709;53.480;9.688;2022-07-04T15:03:01;1.60;;;1.10;;
2406;SDS011;37709;53.480;9.688;2022-07-04T15:05:29;3.13;;;1.17;;
2406;SDS011;37709;53.480;9.688;2022-07-04T15:07:56;1.80;;;0.80;;
2406;SDS011;37709;53.480;9.688;2022-07-04T15:10:24;1.47;;;0.70;;
2406;SDS011;37709;53.480;9.688;2022-07-04T15:13:12;7.63;;;1.20;;
2406;SDS011;37709;53.480;9.688;2022-07-04T15:15:41;2.80;;;1.13;;
2406;SDS011;37709;53.480;9.688;2022-07-04T15:18:12;1.73;;;1.03;;
2406;SDS011;37709;53.480;9.688;2022-07-04T15:20:39;1.67;;;1.00;;
2406;SDS011;37709;53.480;9.688;2022-07-04T15:23:27;3.27;;;1.17;;
2406;SDS011;37709;53.480;9.688;2022-07-04T15:26:13;2.50;;;1.00;;
2406;SDS011;37709;53.480;9.688;2022-07-04T15:28:41;3.50;;;0.93;;
2406;SDS011;37709;53.480;9.688;2022-07-04T15:31:08;2.83;;;1.20;;
2406;SDS011;37709;53.480;9.688;2022-07-04T15:33:39;1.00;;;0.67;;
2406;SDS011;37709;53.480;9.688;2022-07-04T15:36:09;2.03;;;0.90;;
2406;SDS011;37709;53.480;9.688;2022-07-04T15:38:38;1.47;;;0.90;;
2406;SDS011;37709;53.480;9.688;2022-07-04T15:41:06;1.40;;;0.73;;
2406;SDS011;37709;53.480;9.688;2022-07-04T15:43:36;3.93;;;1.57;;
2406;SDS011;37709;53.480;9.688;2022-07-04T15:46:03;2.17;;;0.87;;
2406;SDS011;37709;53.480;9.688;2022-07-04T15:48:31;1.97;;;0.90;;
2406;SDS011;37709;53.480;9.688;2022-07-04T15:50:58;1.77;;;0.90;;
2406;SDS011;37709;53.480;9.688;2022-07-04T15:53:26;2.07;;;1.10;;
2406;SDS011;37709;53.480;9.688;2022-07-04T15:55:54;1.23;;;1.00;;
2406;SDS011;37709;53.480;9.688;2022-07-04T15:58:21;1.40;;;0.97;;
2406;SDS011;37709;53.480;9.688;2022-07-04T16:00:48;4.40;;;1.33;;
2406;SDS011;37709;53.480;9.688;2022-07-04T16:03:16;1.63;;;0.80;;
2406;SDS011;37709;53.480;9.688;2022-07-04T16:11:31;2.03;;;1.20;;